createdAt,value
2019-04-22T00:02:17.465Z,7.57
2019-04-22T00:05:04.827Z,7.52
2019-04-22T00:07:48.941Z,7.47
2019-04-22T00:10:26.512Z,7.45
2019-04-22T00:15:32.503Z,7.48
2019-04-22T00:18:13.262Z,7.46
2019-04-22T00:20:48.814Z,7.49
2019-04-22T00:23:18.681Z,7.48
2019-04-22T00:25:57.264Z,7.42
2019-04-22T00:28:35.023Z,7.31
2019-04-22T00:31:13.129Z,7.24
2019-04-22T00:33:41.945Z,7.11
2019-04-22T00:36:16.657Z,7.00
2019-04-22T00:38:54.504Z,6.94
2019-04-22T00:41:28.674Z,6.87
2019-04-22T00:44:05.251Z,6.88
2019-04-22T00:46:31.345Z,6.94
2019-04-22T00:49:55.408Z,6.91
2019-04-22T00:51:44.889Z,6.97
2019-04-22T00:54:17.076Z,6.99
2019-04-22T00:56:47.927Z,6.98
2019-04-22T00:59:18.783Z,7.01
2019-04-22T01:02:05.632Z,7.03
2019-04-22T01:04:35.078Z,7.02
2019-04-22T01:07:09.301Z,7.11
2019-04-22T01:09:40.154Z,7.12
2019-04-22T01:12:13.599Z,7.18
2019-04-22T01:14:47.778Z,7.14
2019-04-22T01:17:21.214Z,7.15
2019-04-22T01:19:58.354Z,7.15
2019-04-22T01:22:27.155Z,7.13
2019-04-22T01:25:02.539Z,7.18
2019-04-22T01:27:30.904Z,7.11
2019-04-22T01:30:00.986Z,7.11
2019-04-22T01:32:30.428Z,7.13
2019-04-22T01:35:09.850Z,7.14
2019-04-22T01:37:49.568Z,7.13
2019-04-22T01:40:33.494Z,7.11
2019-04-22T01:43:08.663Z,7.09
2019-04-22T01:45:39.331Z,7.05
2019-04-22T01:48:10.647Z,7.04
2019-04-22T01:50:45.865Z,7.05
2019-04-22T01:53:19.371Z,7.03
2019-04-22T01:55:59.041Z,7.04
2019-04-22T01:58:23.778Z,7.07
2019-04-22T02:00:59.739Z,7.11
2019-04-22T02:03:41.438Z,7.16
2019-04-22T02:06:17.117Z,7.14
2019-04-22T02:11:28.798Z,7.07
2019-04-22T02:13:56.590Z,7.05
2019-04-22T02:16:33.980Z,6.99
2019-04-22T02:19:15.185Z,6.99
2019-04-22T02:21:38.767Z,7.01
2019-04-22T02:24:12.221Z,7.08
2019-04-22T02:27:00.274Z,7.14
2019-04-22T02:29:23.256Z,7.20
2019-04-22T02:34:40.306Z,7.32
2019-04-22T02:37:03.161Z,7.39
2019-04-22T02:39:41.126Z,7.43
2019-04-22T02:44:47.060Z,7.47
2019-04-22T02:49:53.584Z,7.58
2019-04-22T02:52:30.997Z,7.57
2019-04-22T02:55:15.780Z,7.63
2019-04-22T03:00:16.225Z,7.66
2019-04-22T03:05:27.961Z,7.53
2019-04-22T03:08:00.400Z,7.47
2019-04-22T03:10:37.416Z,7.46
2019-04-22T03:13:01.022Z,7.47
2019-04-22T03:18:10.889Z,7.44
2019-04-22T03:20:41.586Z,7.43
2019-04-22T03:23:27.353Z,7.43
2019-04-22T03:28:32.895Z,7.46
2019-04-22T03:37:09.545Z,7.44
2019-04-22T03:54:58.477Z,7.32
2019-04-22T03:59:59.357Z,7.30
2019-04-22T04:02:43.454Z,7.28
2019-04-22T04:05:05.300Z,7.33
2019-04-22T04:10:27.914Z,7.44
2019-04-22T04:15:29.913Z,7.42
2019-04-22T04:25:42.431Z,7.64
2019-04-22T04:30:40.042Z,7.92
2019-04-22T04:38:28.768Z,7.95
2019-04-22T04:41:06.024Z,7.98
2019-04-22T04:46:16.069Z,8.05
2019-04-22T04:48:55.716Z,8.12
2019-04-22T04:51:30.567Z,8.17
2019-04-22T04:54:01.837Z,8.18
2019-04-22T04:56:29.615Z,8.24
2019-04-22T04:59:19.505Z,8.21
2019-04-22T05:01:35.993Z,8.14
2019-04-22T05:09:21.496Z,8.16
2019-04-22T05:17:03.921Z,8.40
2019-04-22T05:19:32.346Z,8.46
2019-04-22T05:24:34.452Z,8.70
2019-04-22T05:27:27.947Z,8.78
2019-04-22T05:30:04.028Z,8.93
2019-04-22T05:32:19.525Z,9.01
2019-04-22T05:35:06.883Z,9.03
2019-04-22T05:37:30.932Z,9.11
2019-04-22T05:40:06.188Z,9.15
2019-04-22T05:42:32.165Z,9.22
2019-04-22T05:45:13.372Z,9.44
2019-04-22T05:47:44.302Z,9.54
2019-04-22T05:50:14.483Z,9.85
2019-04-22T05:53:03.322Z,10.20
2019-04-22T05:55:33.231Z,10.38
2019-04-22T05:58:02.485Z,10.63
2019-04-22T06:01:05.647Z,10.79
2019-04-22T06:03:17.229Z,10.86
2019-04-22T06:06:07.794Z,10.96
2019-04-22T06:08:18.247Z,10.89
2019-04-22T06:11:04.219Z,10.83
2019-04-22T06:13:28.035Z,10.97
2019-04-22T06:16:03.680Z,11.01
2019-04-22T06:18:38.571Z,10.96
2019-04-22T06:21:11.161Z,11.07
2019-04-22T06:26:46.267Z,11.68
2019-04-22T06:28:56.946Z,11.76
2019-04-22T06:31:36.890Z,11.92
2019-04-22T06:34:10.541Z,12.15
2019-04-22T06:39:14.630Z,12.35
2019-04-22T06:41:47.845Z,12.73
2019-04-22T06:46:52.599Z,12.97
2019-04-22T06:49:31.810Z,13.09
2019-04-22T06:52:09.197Z,13.44
2019-04-22T06:54:32.929Z,13.89
2019-04-22T06:57:09.894Z,13.77
2019-04-22T06:59:42.679Z,13.90
2019-04-22T07:02:16.730Z,14.06
2019-04-22T07:04:52.004Z,13.91
2019-04-22T07:07:39.993Z,13.88
2019-04-22T07:10:06.652Z,13.65
2019-04-22T07:12:29.053Z,13.34
2019-04-22T07:15:16.924Z,13.43
2019-04-22T07:17:42.405Z,13.70
2019-04-22T07:20:17.755Z,14.15
2019-04-22T07:22:45.312Z,14.27
2019-04-22T07:25:28.070Z,14.04
2019-04-22T07:27:52.132Z,14.01
2019-04-22T07:30:26.402Z,14.35
2019-04-22T07:35:48.926Z,15.45
2019-04-22T07:38:20.562Z,15.40
2019-04-22T07:40:50.149Z,15.64
2019-04-22T07:45:53.807Z,15.65
2019-04-22T07:48:33.892Z,15.83
2019-04-22T07:53:37.069Z,15.59
2019-04-22T07:56:12.190Z,15.40
2019-04-22T07:58:43.305Z,15.31
2019-04-22T08:01:20.452Z,15.08
2019-04-22T08:04:05.537Z,15.15
2019-04-22T08:06:23.354Z,15.13
2019-04-22T08:09:04.678Z,14.81
2019-04-22T08:11:46.268Z,14.72
2019-04-22T08:14:07.634Z,15.13
2019-04-22T08:16:44.001Z,15.19
2019-04-22T08:19:35.462Z,15.79
2019-04-22T08:21:50.891Z,16.59
2019-04-22T08:24:22.585Z,17.41
2019-04-22T08:27:00.931Z,17.77
2019-04-22T08:29:38.148Z,17.66
2019-04-22T08:32:06.080Z,17.73
2019-04-22T08:34:38.971Z,16.95
2019-04-22T08:37:41.619Z,16.24
2019-04-22T08:39:41.983Z,15.80
2019-04-22T08:42:27.953Z,15.17
2019-04-22T08:45:08.030Z,15.29
2019-04-22T08:47:30.980Z,15.37
2019-04-22T08:50:20.101Z,15.15
2019-04-22T08:52:35.455Z,14.90
2019-04-22T08:55:14.322Z,14.84
2019-04-22T08:58:03.192Z,15.00
2019-04-22T09:00:12.720Z,15.29
2019-04-22T09:02:55.501Z,16.02
2019-04-22T09:05:44.909Z,16.76
2019-04-22T09:07:58.708Z,17.02
2019-04-22T09:10:37.798Z,16.71
2019-04-22T09:15:45.068Z,16.26
2019-04-22T09:18:16.155Z,16.00
2019-04-22T09:20:49.202Z,15.76
2019-04-22T09:23:26.915Z,15.65
2019-04-22T09:25:53.514Z,15.55
2019-04-22T09:28:33.182Z,15.36
2019-04-22T09:31:06.340Z,15.34
2019-04-22T09:33:38.184Z,15.57
2019-04-22T09:36:16.853Z,16.13
2019-04-22T09:38:45.063Z,16.12
2019-04-22T09:41:18.800Z,16.06
2019-04-22T09:43:56.999Z,16.12
2019-04-22T09:46:32.857Z,16.13
2019-04-22T09:49:06.337Z,16.43
2019-04-22T09:51:32.183Z,16.70
2019-04-22T09:54:16.809Z,16.73
2019-04-22T09:56:43.928Z,16.80
2019-04-22T09:59:14.028Z,16.94
2019-04-22T10:02:03.985Z,18.00
2019-04-22T10:04:21.848Z,18.26
2019-04-22T10:06:54.440Z,18.04
2019-04-22T10:09:52.834Z,17.80
2019-04-22T10:12:16.663Z,17.42
2019-04-22T10:14:45.388Z,17.10
2019-04-22T10:17:15.618Z,17.37
2019-04-22T10:19:51.607Z,17.54
2019-04-22T10:25:01.691Z,18.02
2019-04-22T10:27:35.077Z,18.67
2019-04-22T10:30:04.409Z,18.71
2019-04-22T10:32:37.611Z,18.13
2019-04-22T10:35:11.060Z,18.15
2019-04-22T10:37:40.639Z,18.49
2019-04-22T10:40:19.561Z,19.63
2019-04-22T10:42:53.602Z,20.58
2019-04-22T10:45:26.134Z,20.08
2019-04-22T10:47:58.509Z,19.19
2019-04-22T10:50:43.029Z,18.41
2019-04-22T10:53:17.647Z,17.87
2019-04-22T10:55:51.681Z,18.45
2019-04-22T10:58:24.862Z,19.33
2019-04-22T11:00:58.160Z,18.98
2019-04-22T11:03:31.192Z,20.06
2019-04-22T11:06:03.538Z,21.39
2019-04-22T11:08:43.510Z,21.34
2019-04-22T11:11:21.595Z,20.00
2019-04-22T11:13:44.043Z,19.00
2019-04-22T11:16:21.309Z,18.40
2019-04-22T11:18:55.929Z,17.98
2019-04-22T11:21:29.572Z,18.00
2019-04-22T11:24:02.975Z,18.26
2019-04-22T11:26:36.867Z,19.38
2019-04-22T11:29:09.864Z,19.27
2019-04-22T11:31:42.397Z,18.71
2019-04-22T11:34:15.341Z,18.20
2019-04-22T11:36:48.657Z,17.77
2019-04-22T11:39:19.808Z,17.52
2019-04-22T11:41:51.944Z,17.45
2019-04-22T11:44:25.433Z,18.23
2019-04-22T11:46:57.131Z,19.28
2019-04-22T11:49:31.931Z,20.20
2019-04-22T11:52:06.577Z,20.74
2019-04-22T11:54:38.866Z,21.36
2019-04-22T11:57:11.076Z,20.91
2019-04-22T11:59:43.166Z,20.17
2019-04-22T12:02:16.130Z,19.12
2019-04-22T12:04:47.720Z,18.30
2019-04-22T12:07:21.205Z,17.87
2019-04-22T12:09:53.627Z,17.83
2019-04-22T12:12:27.809Z,17.79
2019-04-22T12:15:00.748Z,17.57
2019-04-22T12:17:33.878Z,17.34
2019-04-22T12:20:09.827Z,17.04
2019-04-22T12:22:41.156Z,17.91
2019-04-22T12:25:29.208Z,19.34
2019-04-22T12:27:48.395Z,20.69
2019-04-22T12:30:19.780Z,21.15
2019-04-22T12:32:52.703Z,21.43
2019-04-22T12:35:26.281Z,21.63
2019-04-22T12:38:02.661Z,21.79
2019-04-22T12:40:40.869Z,21.89
2019-04-22T12:43:08.253Z,22.27
2019-04-22T12:45:40.380Z,22.75
2019-04-22T12:48:12.910Z,21.75
2019-04-22T12:50:48.031Z,21.98
2019-04-22T12:53:23.542Z,22.34
2019-04-22T12:55:55.197Z,22.53
2019-04-22T12:58:27.665Z,22.69
2019-04-22T13:01:01.042Z,23.12
2019-04-22T13:03:34.256Z,22.53
2019-04-22T13:06:07.836Z,21.68
2019-04-22T13:08:41.310Z,21.62
2019-04-22T13:11:18.007Z,21.44
2019-04-22T13:13:47.425Z,20.69
2019-04-22T13:16:21.063Z,20.69
2019-04-22T13:18:59.254Z,21.14
2019-04-22T13:21:27.229Z,21.97
2019-04-22T13:23:59.324Z,22.62
2019-04-22T13:26:31.831Z,23.14
2019-04-22T13:29:03.234Z,23.18
2019-04-22T13:31:35.345Z,23.53
2019-04-22T13:34:13.262Z,23.62
2019-04-22T13:36:43.607Z,23.00
2019-04-22T13:39:16.728Z,21.45
2019-04-22T13:41:54.586Z,20.27
2019-04-22T13:44:23.132Z,20.60
2019-04-22T13:47:08.718Z,20.95
2019-04-22T13:50:08.812Z,21.22
2019-04-22T13:52:40.913Z,21.30
2019-04-22T13:55:00.314Z,21.12
2019-04-22T13:57:32.600Z,21.18
2019-04-22T13:59:50.724Z,21.15
2019-04-22T14:02:44.665Z,21.07
2019-04-22T14:05:19.041Z,21.14
2019-04-22T14:07:54.851Z,21.24
2019-04-22T14:10:24.924Z,21.48
2019-04-22T14:12:57.044Z,21.56
2019-04-22T14:15:29.852Z,21.57
2019-04-22T14:18:03.068Z,20.70
2019-04-22T14:20:36.806Z,20.08
2019-04-22T14:23:13.704Z,19.43
2019-04-22T14:25:46.387Z,18.98
2019-04-22T14:28:21.158Z,18.53
2019-04-22T14:30:52.788Z,18.38
2019-04-22T14:33:24.845Z,18.59
2019-04-22T14:35:58.082Z,18.86
2019-04-22T14:38:32.373Z,19.16
2019-04-22T14:41:05.878Z,19.43
2019-04-22T14:44:23.290Z,19.57
2019-04-22T14:46:38.891Z,19.71
2019-04-22T14:49:10.095Z,19.91
2019-04-22T14:51:46.852Z,20.08
2019-04-22T14:54:13.677Z,20.28
2019-04-22T14:56:31.405Z,20.18
2019-04-22T14:59:04.988Z,19.75
2019-04-22T15:01:40.124Z,19.22
2019-04-22T15:04:11.030Z,18.88
2019-04-22T15:06:46.097Z,19.01
2019-04-22T15:09:16.222Z,18.89
2019-04-22T15:11:58.202Z,19.01
2019-04-22T15:14:23.353Z,19.14
2019-04-22T15:17:20.836Z,18.84
2019-04-22T15:20:07.691Z,18.81
2019-04-22T15:22:40.938Z,18.74
2019-04-22T15:25:14.374Z,18.62
2019-04-22T15:27:47.745Z,18.52
2019-04-22T15:30:21.436Z,18.46
2019-04-22T15:32:53.776Z,18.29
2019-04-22T15:35:25.233Z,18.23
2019-04-22T15:37:57.367Z,18.24
2019-04-22T15:40:29.345Z,18.17
2019-04-22T15:43:02.757Z,17.99
2019-04-22T15:45:35.027Z,17.85
2019-04-22T15:48:08.276Z,17.67
2019-04-22T15:50:40.700Z,17.49
2019-04-22T15:53:13.802Z,17.34
2019-04-22T15:55:47.100Z,17.24
2019-04-22T15:58:19.753Z,17.17
2019-04-22T16:01:03.952Z,17.22
2019-04-22T16:03:26.870Z,17.17
2019-04-22T16:05:59.785Z,17.06
2019-04-22T16:08:34.177Z,16.97
2019-04-22T16:11:06.279Z,16.89
2019-04-22T16:13:40.047Z,16.75
2019-04-22T16:16:12.502Z,16.66
2019-04-22T16:18:44.815Z,16.57
2019-04-22T16:21:26.718Z,16.46
2019-04-22T16:23:58.692Z,16.32
2019-04-22T16:26:50.547Z,16.24
2019-04-22T16:29:23.457Z,16.13
2019-04-22T16:31:55.670Z,16.03
2019-04-22T16:34:29.308Z,15.99
2019-04-22T16:37:02.901Z,15.88
2019-04-22T16:39:36.455Z,15.79
2019-04-22T16:42:23.506Z,15.71
2019-04-22T16:44:47.303Z,15.67
2019-04-22T16:47:19.570Z,15.60
2019-04-22T16:49:52.105Z,15.54
2019-04-22T16:52:23.839Z,15.40
2019-04-22T16:54:56.845Z,15.23
2019-04-22T16:57:30.054Z,15.15
2019-04-22T17:00:04.742Z,15.09
2019-04-22T17:03:10.717Z,15.06
2019-04-22T17:06:08.026Z,14.98
2019-04-22T17:08:40.742Z,14.92
2019-04-22T17:11:11.782Z,14.91
2019-04-22T17:13:44.636Z,14.81
2019-04-22T17:16:18.112Z,14.75
2019-04-22T17:18:50.325Z,14.61
2019-04-22T17:21:23.488Z,14.59
2019-04-22T17:23:56.127Z,14.53
2019-04-22T17:26:28.578Z,14.46
2019-04-22T17:29:03.104Z,14.37
2019-04-22T17:31:34.851Z,14.30
2019-04-22T17:34:07.084Z,14.23
2019-04-22T17:36:40.558Z,14.13
2019-04-22T17:39:27.035Z,14.07
2019-04-22T17:42:08.361Z,14.02
2019-04-22T17:44:48.375Z,13.93
2019-04-22T17:47:45.287Z,13.90
2019-04-22T17:50:28.560Z,13.83
2019-04-22T17:53:11.590Z,13.73
2019-04-22T17:55:41.660Z,13.68
2019-04-22T17:58:07.505Z,13.65
2019-04-22T18:00:36.343Z,13.64
2019-04-22T18:03:08.509Z,13.60
2019-04-22T18:05:40.942Z,13.56
2019-04-22T18:08:25.160Z,13.49
2019-04-22T18:10:59.862Z,13.41
2019-04-22T18:13:32.214Z,13.30
2019-04-22T18:16:09.837Z,13.20
2019-04-22T18:18:39.492Z,13.12
2019-04-22T18:21:11.955Z,13.12
2019-04-22T18:23:30.983Z,13.10
2019-04-22T18:26:18.542Z,13.01
2019-04-22T18:28:54.346Z,12.94
2019-04-22T18:31:26.286Z,12.90
2019-04-22T18:33:54.483Z,12.86
2019-04-22T18:36:33.343Z,12.78
2019-04-22T18:39:11.182Z,12.73
2019-04-22T18:41:39.528Z,12.63
2019-04-22T18:44:20.220Z,12.55
2019-04-22T18:46:51.136Z,12.50
2019-04-22T18:49:22.929Z,12.42
2019-04-22T18:52:04.533Z,12.34
2019-04-22T18:54:53.508Z,12.27
2019-04-22T18:57:27.349Z,12.20
2019-04-22T18:59:49.905Z,12.12
2019-04-22T19:02:24.733Z,12.12
2019-04-22T19:05:08.451Z,12.14
2019-04-22T19:07:59.171Z,12.09
2019-04-22T19:10:37.527Z,12.01
2019-04-22T19:13:41.374Z,11.97
2019-04-22T19:15:44.940Z,11.94
2019-04-22T19:18:24.225Z,11.89
2019-04-22T19:20:59.555Z,11.78
2019-04-22T19:23:28.108Z,11.70
2019-04-22T19:25:58.570Z,11.63
2019-04-22T19:28:49.477Z,11.61
2019-04-22T19:31:17.294Z,11.53
2019-04-22T19:33:45.993Z,11.47
2019-04-22T19:36:21.243Z,11.40
2019-04-22T19:38:52.519Z,11.38
2019-04-22T19:41:35.162Z,11.29
2019-04-22T19:44:04.145Z,11.22
2019-04-22T19:46:34.538Z,11.16
2019-04-22T19:49:18.153Z,11.11
2019-04-22T19:51:55.855Z,11.05
2019-04-22T19:54:19.114Z,11.01
2019-04-22T19:56:40.440Z,10.99
2019-04-22T19:59:22.466Z,10.97
2019-04-22T20:02:39.222Z,10.92
2019-04-22T20:05:41.526Z,10.90
2019-04-22T20:08:12.591Z,10.82
2019-04-22T20:10:42.116Z,10.73
2019-04-22T20:13:24.295Z,10.69
2019-04-22T20:15:47.394Z,10.66
2019-04-22T20:18:37.282Z,10.65
2019-04-22T20:21:07.524Z,10.65
2019-04-22T20:23:29.122Z,10.60
2019-04-22T20:26:02.170Z,10.57
2019-04-22T20:28:47.487Z,10.55
2019-04-22T20:31:18.509Z,10.56
2019-04-22T20:33:56.095Z,10.53
2019-04-22T20:36:51.046Z,10.50
2019-04-22T20:38:59.573Z,10.49
2019-04-22T20:41:31.428Z,10.43
2019-04-22T20:44:20.798Z,10.46
2019-04-22T20:46:47.493Z,10.42
2019-04-22T20:49:22.327Z,10.35
2019-04-22T20:51:58.820Z,10.32
2019-04-22T20:54:32.505Z,10.28
2019-04-22T20:56:56.422Z,10.28
2019-04-22T20:59:33.400Z,10.24
2019-04-22T21:02:11.526Z,10.24
2019-04-22T21:04:35.846Z,10.21
2019-04-22T21:07:14.052Z,10.16
2019-04-22T21:09:51.762Z,10.09
2019-04-22T21:12:20.298Z,10.05
2019-04-22T21:15:03.675Z,9.99
2019-04-22T21:17:36.177Z,9.96
2019-04-22T21:20:13.799Z,9.88
2019-04-22T21:22:44.769Z,9.82
2019-04-22T21:25:08.910Z,9.75
2019-04-22T21:27:52.792Z,9.68
2019-04-22T21:30:24.566Z,9.64
2019-04-22T21:32:53.558Z,9.60
2019-04-22T21:35:47.508Z,9.57
2019-04-22T21:38:08.377Z,9.53
2019-04-22T21:40:40.267Z,9.55
2019-04-22T21:43:21.477Z,9.51
2019-04-22T21:45:43.180Z,9.45
2019-04-22T21:48:31.151Z,9.41
2019-04-22T21:50:59.498Z,9.37
2019-04-22T21:53:41.834Z,9.35
2019-04-22T21:56:23.247Z,9.31
2019-04-22T21:59:05.164Z,9.28
2019-04-22T22:01:52.685Z,9.28
2019-04-22T22:04:17.501Z,9.22
2019-04-22T22:06:41.093Z,9.18
2019-04-22T22:09:25.089Z,9.14
2019-04-22T22:11:58.028Z,9.13
2019-04-22T22:14:31.659Z,9.08
2019-04-22T22:17:01.267Z,9.05
2019-04-22T22:19:45.573Z,8.97
2019-04-22T22:22:36.134Z,8.98
2019-04-22T22:24:55.108Z,8.94
2019-04-22T22:27:25.477Z,8.93
2019-04-22T22:32:36.756Z,8.81
2019-04-22T22:35:06.847Z,8.78
2019-04-22T22:37:35.870Z,8.74
2019-04-22T22:40:06.647Z,8.74
2019-04-22T22:42:38.107Z,8.69
2019-04-22T22:45:16.336Z,8.67
2019-04-22T22:48:03.922Z,8.66
2019-04-22T22:50:36.013Z,8.62
2019-04-22T22:53:22.336Z,8.61
2019-04-22T22:55:47.680Z,8.58
2019-04-22T22:58:17.666Z,8.54
2019-04-22T23:00:44.149Z,8.48
2019-04-22T23:03:40.521Z,8.48
2019-04-22T23:06:06.238Z,8.44
2019-04-22T23:08:31.098Z,8.38
2019-04-22T23:11:05.052Z,8.35
2019-04-22T23:13:42.806Z,8.33
2019-04-22T23:16:04.935Z,8.34
2019-04-22T23:18:27.911Z,8.34
2019-04-22T23:21:01.431Z,8.30
2019-04-22T23:23:51.588Z,8.25
2019-04-22T23:26:35.938Z,8.18
2019-04-22T23:29:26.290Z,8.17
2019-04-22T23:31:59.653Z,8.15
2019-04-22T23:34:32.760Z,8.09
2019-04-22T23:37:28.969Z,8.10
2019-04-22T23:40:17.273Z,8.09
2019-04-22T23:42:48.270Z,8.11
2019-04-22T23:45:22.573Z,8.09
2019-04-22T23:47:43.220Z,8.02
2019-04-22T23:50:26.453Z,8.01
2019-04-22T23:52:58.842Z,8.00
2019-04-22T23:55:37.005Z,7.97
2019-04-22T23:58:09.587Z,7.95
